Terminal Aerodrome Forecast
Issued by NWS Detroit/Pontiac, MI

Home | Current Version | Previous Version | Text Only | Print | Product List | Glossary On
Versions: 1 2 3 4 5 6 7 8 9 10 11 12 13 14 15 16 17 18 19 20 21 22 23 24 25 26 27 28
000
FTUS43 KDTX 201133 AAA
TAFDTW
TAF AMD
KDTW 201133Z 2012/2118 00000KT 1/2SM FG OVC004
     FM201230 VRB03KT 1SM BR OVC006
     FM201400 13005KT 4SM BR BKN008
     FM201600 16005KT P6SM BKN022
     FM201900 17006KT P6SM BKN035
     FM202100 15004KT P6SM SKC
     FM210600 VRB03KT 3SM BR SCT008 BKN030
     FM211500 15006KT P6SM SCT035=

USA.gov is the U.S. government's official web portal to all federal, state and local government web resources and services.